Terminal Aerodrome Forecast
Issued by NWS North Platte, NE

Home | Current Version | Previous Version | Text Only | Print | Product List | Glossary Off
Versions: 1 2 3 4 5 6 7 8 9 10 11 12 13 14 15 16 17 18 19 20

841
FTUS43 KLBF 081727
TAFVTN
TAF
KVTN 081727Z 0818/0918 31019G27KT P6SM SCT080 BKN200
     FM090100 32012KT P6SM OVC070
     FM090700 30006KT P6SM BKN040 OVC100
     FM091300 32011KT P6SM SCT022 BKN040
      TEMPO 0913/0917 -SN BKN020 OVC040=

USA.gov is the U.S. government's official web portal to all federal, state and local government web resources and services.